Time;durP1;ratioP1;P1;durP2;ratioP2;P2;SDS_P1;SDS_P2;PMS_P1;PMS_P2;Temp;Humidity;BMP_temperature;BMP_pressure;BME280_temperature;BME280_humidity;BME280_pressure;Samples;Min_cycle;Max_cycle;Signal;HPM_P1;HPM_P2
2022/08/02 00:01:53;;;;;;;1.57;0.80;;;;;;;19.40;94.35;99092.97;5145248;27;20119;-80
2022/08/02 00:04:20;;;;;;;1.50;1.20;;;;;;;19.32;94.90;99076.81;5154792;27;20043;-81
2022/08/02 00:06:47;;;;;;;1.52;0.95;;;;;;;19.36;95.35;99103.66;5147349;27;20394;-80
2022/08/02 00:09:15;;;;;;;1.23;0.90;;;;;;;19.40;95.13;99104.81;5146566;27;20055;-81
2022/08/02 00:11:42;;;;;;;0.68;0.68;;;;;;;19.34;94.54;99093.94;5155728;27;20046;-80
2022/08/02 00:14:08;;;;;;;1.85;0.90;;;;;;;19.35;94.77;99099.22;5154897;27;20084;-80
2022/08/02 00:16:37;;;;;;;4.57;1.00;;;;;;;19.18;95.27;99090.00;5155504;27;20515;-81
2022/08/02 00:19:04;;;;;;;2.00;0.88;;;;;;;19.06;96.71;99095.56;5153569;27;20069;-80
2022/08/02 00:21:31;;;;;;;1.13;1.02;;;;;;;19.10;97.14;99125.16;5154107;27;20057;-81
2022/08/02 00:23:57;;;;;;;3.15;1.15;;;;;;;18.93;97.58;99107.69;5151653;27;20038;-80
2022/08/02 00:26:25;;;;;;;1.15;1.00;;;;;;;18.86;97.63;99099.56;5144661;27;20043;-81
2022/08/02 00:28:55;;;;;;;1.77;1.10;;;;;;;18.84;97.79;99098.06;5141141;27;20035;-81
2022/08/02 00:31:22;;;;;;;2.92;1.00;;;;;;;18.88;97.42;99099.31;5149464;27;20043;-80
2022/08/02 00:33:49;;;;;;;2.03;0.98;;;;;;;18.75;98.71;99117.69;5149473;27;20062;-81
2022/08/02 00:36:16;;;;;;;1.67;1.00;;;;;;;18.71;98.44;99111.03;5150348;27;20050;-81
2022/08/02 00:38:43;;;;;;;1.63;1.00;;;;;;;18.74;98.17;99115.19;5152342;27;20053;-80
2022/08/02 00:41:15;;;;;;;5.18;1.27;;;;;;;18.65;98.26;99098.22;5147051;27;20043;-80
2022/08/02 00:43:43;;;;;;;1.17;0.93;;;;;;;18.62;98.83;99103.34;5143414;27;20493;-81
2022/08/02 00:46:10;;;;;;;3.10;0.80;;;;;;;18.48;99.11;99098.06;5146951;27;20042;-80
2022/08/02 00:48:37;;;;;;;1.20;0.88;;;;;;;18.63;99.50;99127.88;5147654;27;20042;-80
2022/08/02 00:51:05;;;;;;;1.98;1.10;;;;;;;18.49;100.00;99123.69;5151490;27;20039;-81
2022/08/02 00:53:32;;;;;;;3.17;1.02;;;;;;;18.45;100.00;99116.97;5151423;27;20043;-80
2022/08/02 00:55:58;;;;;;;3.22;1.70;;;;;;;18.32;100.00;99126.28;5153239;27;20038;-81
2022/08/02 00:58:25;;;;;;;1.75;1.05;;;;;;;18.32;100.00;99124.38;5142657;27;20059;-81
2022/08/02 01:00:56;;;;;;;2.25;1.00;;;;;;;18.25;100.00;99112.66;5143883;27;20545;-81
2022/08/02 01:03:23;;;;;;;2.10;0.93;;;;;;;18.47;100.00;99121.19;5152003;27;20138;-81
2022/08/02 01:05:49;;;;;;;1.55;1.00;;;;;;;18.34;100.00;99105.72;5151438;27;20050;-81
2022/08/02 01:08:16;;;;;;;1.13;0.82;;;;;;;18.33;100.00;99093.03;5152847;27;20042;-81
2022/08/02 01:10:43;;;;;;;4.20;1.10;;;;;;;18.20;100.00;99107.00;5149607;27;20047;-81
2022/08/02 01:13:09;;;;;;;2.90;1.10;;;;;;;18.17;100.00;99113.81;5150893;27;20049;-81
2022/08/02 01:15:40;;;;;;;2.15;1.75;;;;;;;18.13;100.00;99112.63;5150400;27;20391;-81
2022/08/02 01:18:16;;;;;;;2.35;1.00;;;;;;;18.30;100.00;99129.28;5154619;27;20408;-80
2022/08/02 01:21:06;;;;;;;1.42;1.10;;;;;;;18.25;100.00;99123.66;5149940;27;20035;-80
2022/08/02 01:23:45;;;;;;;1.20;0.95;;;;;;;17.97;100.00;99102.28;5152647;27;20043;-82
2022/08/02 01:26:34;;;;;;;1.23;0.90;;;;;;;18.01;100.00;99115.34;5146939;27;20653;-81
2022/08/02 01:29:08;;;;;;;2.08;1.20;;;;;;;17.96;100.00;99120.72;5139115;27;20541;-81
2022/08/02 01:31:40;;;;;;;3.35;1.02;;;;;;;18.02;100.00;99133.53;5149816;27;20047;-81
2022/08/02 01:34:16;;;;;;;1.30;1.13;;;;;;;18.01;100.00;99145.59;5145484;27;20480;-84
2022/08/02 01:36:48;;;;;;;1.42;1.10;;;;;;;17.90;100.00;99137.28;5137120;27;20082;-80
2022/08/02 01:39:19;;;;;;;1.73;1.10;;;;;;;17.81;100.00;99134.84;5147619;27;20047;-80
2022/08/02 01:41:47;;;;;;;2.22;1.17;;;;;;;17.85;100.00;99143.47;5150379;27;20053;-81
2022/08/02 01:44:18;;;;;;;0.90;0.90;;;;;;;17.80;100.00;99140.59;5147671;27;20047;-81
2022/08/02 01:46:46;;;;;;;1.98;1.25;;;;;;;17.78;100.00;99126.22;5146869;27;20046;-80
2022/08/02 01:49:17;;;;;;;0.77;0.77;;;;;;;17.75;100.00;99130.28;5146624;27;20049;-80
2022/08/02 01:54:33;;;;;;;2.45;1.10;;;;;;;17.87;100.00;99144.09;5153988;27;20057;-80
2022/08/02 01:57:03;;;;;;;1.80;1.27;;;;;;;17.63;100.00;99127.47;5155245;27;20042;-80
2022/08/02 01:59:33;;;;;;;1.48;1.00;;;;;;;17.62;100.00;99152.47;5142314;27;20055;-81
2022/08/02 02:02:01;;;;;;;2.20;1.15;;;;;;;17.74;100.00;99144.25;5146903;27;20045;-80
2022/08/02 02:04:32;;;;;;;3.40;1.13;;;;;;;17.72;100.00;99127.16;5142034;27;20046;-81
2022/08/02 02:07:00;;;;;;;1.65;1.20;;;;;;;17.74;100.00;99150.59;5152329;27;20087;-81
2022/08/02 02:09:34;;;;;;;2.40;1.45;;;;;;;17.64;100.00;99144.81;5152484;27;20051;-81
2022/08/02 02:12:01;;;;;;;1.13;0.93;;;;;;;17.54;100.00;99134.38;5150358;27;20138;-81
2022/08/02 02:14:33;;;;;;;1.23;1.00;;;;;;;17.51;100.00;99124.66;5149926;27;20054;-80
2022/08/02 02:17:02;;;;;;;1.75;1.17;;;;;;;17.49;100.00;99129.56;5141687;27;20526;-80
2022/08/02 02:19:30;;;;;;;1.98;1.00;;;;;;;17.40;100.00;99125.44;5146431;27;20043;-81
2022/08/02 02:21:57;;;;;;;2.10;1.15;;;;;;;17.58;100.00;99152.06;5155115;27;20433;-81
2022/08/02 02:24:24;;;;;;;1.45;1.25;;;;;;;17.43;100.00;99138.75;5155293;27;20035;-81
2022/08/02 02:26:51;;;;;;;1.30;1.13;;;;;;;17.56;100.00;99145.13;5154248;27;20290;-80
2022/08/02 02:29:20;;;;;;;1.08;1.02;;;;;;;17.64;100.00;99151.16;5149029;27;20045;-80
2022/08/02 02:31:50;;;;;;;2.22;1.15;;;;;;;17.45;100.00;99125.59;5147000;27;20477;-80
2022/08/02 02:34:25;;;;;;;1.70;1.30;;;;;;;17.55;100.00;99148.94;5155108;27;20133;-80
2022/08/02 02:36:58;;;;;;;4.72;1.40;;;;;;;17.41;100.00;99129.88;5152280;27;20039;-81
2022/08/02 02:39:27;;;;;;;1.77;1.20;;;;;;;17.27;100.00;99103.66;5155666;27;20058;-81
2022/08/02 02:41:56;;;;;;;2.10;1.40;;;;;;;17.36;100.00;99121.50;5154206;27;20038;-81
2022/08/02 02:44:23;;;;;;;3.10;1.48;;;;;;;17.51;100.00;99129.34;5152137;27;20050;-80
2022/08/02 02:46:54;;;;;;;2.40;1.45;;;;;;;17.43;100.00;99107.66;5150999;27;20039;-81
2022/08/02 02:49:22;;;;;;;2.35;1.50;;;;;;;17.45;100.00;99116.53;5136884;27;20043;-81
2022/08/02 02:51:50;;;;;;;2.20;1.35;;;;;;;17.54;100.00;99128.00;5153002;27;20501;-81
2022/08/02 02:54:18;;;;;;;2.65;2.00;;;;;;;17.49;100.00;99132.31;5154985;27;20047;-81
2022/08/02 02:56:46;;;;;;;2.88;1.48;;;;;;;17.28;100.00;99122.66;5151021;27;20074;-81
2022/08/02 02:59:14;;;;;;;2.08;1.13;;;;;;;17.26;100.00;99115.69;5153390;27;20070;-81
2022/08/02 03:01:41;;;;;;;1.45;1.13;;;;;;;17.20;100.00;99102.88;5155375;27;20051;-83
2022/08/02 03:04:11;;;;;;;2.05;1.40;;;;;;;17.12;100.00;99088.38;5153420;27;20055;-81
2022/08/02 03:06:39;;;;;;;2.05;1.30;;;;;;;17.10;100.00;99109.75;5157335;27;20046;-80
2022/08/02 03:09:06;;;;;;;2.60;1.40;;;;;;;17.02;100.00;99090.81;5155106;27;20047;-80
2022/08/02 03:11:35;;;;;;;1.60;1.30;;;;;;;17.02;100.00;99114.72;5151938;27;20042;-81
2022/08/02 03:14:03;;;;;;;2.22;1.50;;;;;;;16.86;100.00;99103.22;5151804;27;20042;-80
2022/08/02 03:16:30;;;;;;;1.60;1.13;;;;;;;16.90;100.00;99085.25;5148862;27;20062;-80
2022/08/02 03:19:01;;;;;;;2.10;1.17;;;;;;;17.07;100.00;99114.84;5148912;27;20077;-80
2022/08/02 03:21:29;;;;;;;1.80;1.35;;;;;;;16.72;100.00;99080.53;5145642;27;20043;-81
2022/08/02 03:23:56;;;;;;;2.30;1.33;;;;;;;16.84;100.00;99108.09;5152899;27;20042;-81
2022/08/02 03:26:22;;;;;;;3.65;1.80;;;;;;;16.80;100.00;99118.69;5153067;27;20055;-81
2022/08/02 03:28:49;;;;;;;2.72;1.20;;;;;;;16.80;100.00;99110.47;5152290;27;20038;-81
2022/08/02 03:31:15;;;;;;;2.17;1.42;;;;;;;16.95;100.00;99126.59;5150275;27;20061;-80
2022/08/02 03:33:42;;;;;;;2.10;1.40;;;;;;;16.99;100.00;99125.06;5152693;27;20042;-80
2022/08/02 03:36:13;;;;;;;3.10;1.27;;;;;;;17.00;100.00;99106.69;5142429;27;20062;-80
2022/08/02 03:38:42;;;;;;;3.33;1.45;;;;;;;16.82;100.00;99112.97;5146209;27;20489;-80
2022/08/02 03:41:10;;;;;;;2.17;1.35;;;;;;;16.97;100.00;99140.09;5151946;27;20133;-80
2022/08/02 03:43:38;;;;;;;1.40;1.30;;;;;;;16.99;100.00;99127.81;5144558;27;20245;-80
2022/08/02 03:46:08;;;;;;;3.70;1.70;;;;;;;16.89;100.00;99126.66;5151962;27;20409;-80
2022/08/02 03:48:36;;;;;;;2.72;1.50;;;;;;;16.71;100.00;99120.06;5152275;27;20045;-80
2022/08/02 03:51:03;;;;;;;2.83;1.60;;;;;;;16.89;100.00;99145.88;5154326;27;20481;-80
2022/08/02 03:53:31;;;;;;;1.67;1.48;;;;;;;16.88;100.00;99144.22;5161369;27;20061;-80
2022/08/02 03:56:00;;;;;;;4.03;1.38;;;;;;;16.77;100.00;99143.00;5165458;27;20463;-80
2022/08/02 03:58:26;;;;;;;1.70;1.60;;;;;;;16.80;100.00;99146.16;5154081;27;20069;-80
2022/08/02 04:00:54;;;;;;;2.88;1.60;;;;;;;16.90;100.00;99142.06;5149545;27;20041;-80
2022/08/02 04:03:21;;;;;;;2.40;1.42;;;;;;;16.98;100.00;99156.34;5153466;27;20058;-80
2022/08/02 04:05:48;;;;;;;2.92;1.50;;;;;;;16.99;100.00;99157.19;5151278;27;20047;-80
2022/08/02 04:08:15;;;;;;;3.72;1.60;;;;;;;16.94;100.00;99144.13;5144428;27;20061;-80
2022/08/02 04:13:33;;;;;;;1.50;1.30;;;;;;;16.89;100.00;99151.38;5153502;27;20057;-81
2022/08/02 04:16:08;;;;;;;1.63;1.40;;;;;;;16.88;100.00;99164.28;5145176;27;20037;-80
2022/08/02 04:18:41;;;;;;;3.25;1.90;;;;;;;16.98;100.00;99172.84;5154020;27;20042;-80
2022/08/02 04:21:12;;;;;;;3.85;1.60;;;;;;;16.92;100.00;99156.41;5151169;27;20042;-80
2022/08/02 04:23:41;;;;;;;1.70;1.40;;;;;;;16.75;100.00;99147.88;5154953;27;20129;-80
2022/08/02 04:26:10;;;;;;;1.83;1.60;;;;;;;16.92;100.00;99181.97;5155638;27;20053;-80
2022/08/02 04:28:38;;;;;;;2.70;1.52;;;;;;;16.88;100.00;99167.00;5144186;27;20058;-80
2022/08/02 04:31:06;;;;;;;4.00;1.50;;;;;;;16.78;100.00;99163.91;5152695;27;20064;-80
2022/08/02 04:33:34;;;;;;;3.15;1.50;;;;;;;16.93;100.00;99186.38;5151680;27;20046;-80
2022/08/02 04:36:01;;;;;;;1.75;1.40;;;;;;;16.79;100.00;99169.16;5152458;27;20042;-81
2022/08/02 04:38:28;;;;;;;2.70;1.40;;;;;;;16.85;100.00;99183.91;5153642;27;20061;-80
2022/08/02 04:40:55;;;;;;;3.15;1.60;;;;;;;16.93;100.00;99189.13;5146281;27;20042;-80
2022/08/02 04:43:23;;;;;;;3.30;1.42;;;;;;;17.04;100.00;99192.19;5135403;27;20096;-80
2022/08/02 04:45:53;;;;;;;4.03;1.70;;;;;;;17.04;100.00;99170.22;5147363;27;20122;-80
2022/08/02 04:48:20;;;;;;;2.40;1.33;;;;;;;17.20;100.00;99199.84;5153985;27;20070;-80
2022/08/02 04:50:47;;;;;;;1.88;1.40;;;;;;;17.05;100.00;99150.78;5150216;27;20410;-80
2022/08/02 04:53:14;;;;;;;2.40;1.40;;;;;;;17.19;100.00;99167.13;5152683;27;20050;-80
2022/08/02 04:55:41;;;;;;;2.45;1.70;;;;;;;17.33;100.00;99179.66;5153217;27;20051;-81
2022/08/02 04:58:07;;;;;;;3.22;1.95;;;;;;;17.55;100.00;99181.94;5156285;27;20485;-80
2022/08/02 05:00:34;;;;;;;3.83;2.20;;;;;;;17.45;100.00;99172.31;5151299;27;20067;-80
2022/08/02 05:03:02;;;;;;;6.22;2.35;;;;;;;17.78;100.00;99189.44;5152331;27;20537;-81
2022/08/02 05:05:29;;;;;;;2.80;1.63;;;;;;;17.81;100.00;99191.72;5149997;27;20042;-81
2022/08/02 05:07:56;;;;;;;4.57;1.55;;;;;;;17.64;100.00;99186.03;5153321;27;20046;-81
2022/08/02 05:10:23;;;;;;;2.35;1.92;;;;;;;17.71;100.00;99174.97;5150096;27;20130;-80
2022/08/02 05:12:50;;;;;;;2.60;1.65;;;;;;;17.85;100.00;99181.97;5152012;27;20046;-81
2022/08/02 05:15:17;;;;;;;2.28;1.45;;;;;;;18.03;100.00;99183.88;5154798;27;20054;-81
2022/08/02 05:17:45;;;;;;;3.38;2.10;;;;;;;17.95;100.00;99163.03;5145603;27;20092;-81
2022/08/02 05:20:13;;;;;;;4.70;2.00;;;;;;;18.22;100.00;99176.41;5152031;27;20580;-81
2022/08/02 05:22:40;;;;;;;5.53;2.28;;;;;;;18.39;100.00;99173.81;5147891;27;20053;-81
2022/08/02 05:25:08;;;;;;;7.43;2.03;;;;;;;18.52;100.00;99181.84;5147482;27;20058;-82
2022/08/02 05:27:35;;;;;;;9.00;2.83;;;;;;;18.72;100.00;99170.50;5150088;27;20047;-81
2022/08/02 05:30:02;;;;;;;2.63;2.30;;;;;;;18.67;100.00;99166.81;5148718;27;20038;-79
2022/08/02 05:32:28;;;;;;;6.95;2.08;;;;;;;18.81;100.00;99190.25;5143516;27;20046;-79
2022/08/02 05:34:55;;;;;;;12.75;2.10;;;;;;;18.95;100.00;99195.59;5139506;27;20134;-79
2022/08/02 05:37:23;;;;;;;9.65;2.08;;;;;;;18.89;100.00;99186.34;5143601;27;20046;-79
2022/08/02 05:39:50;;;;;;;12.43;3.22;;;;;;;18.96;100.00;99200.03;5140710;27;20507;-79
2022/08/02 05:42:16;;;;;;;6.57;1.90;;;;;;;19.05;100.00;99188.38;5137977;27;20481;-80
2022/08/02 05:44:43;;;;;;;6.22;2.05;;;;;;;19.04;100.00;99172.09;5133023;27;20043;-81
2022/08/02 05:47:09;;;;;;;9.73;1.98;;;;;;;19.20;100.00;99178.81;5148185;27;20234;-81
2022/08/02 05:49:36;;;;;;;6.93;2.03;;;;;;;19.50;100.00;99180.56;5152760;27;20053;-79
2022/08/02 05:52:10;;;;;;;6.85;2.08;;;;;;;19.77;100.00;99192.75;5155685;27;20477;-79
2022/08/02 05:54:47;;;;;;;15.90;2.97;;;;;;;19.93;99.25;99176.50;5148136;27;20048;-79
2022/08/02 05:57:20;;;;;;;14.30;1.77;;;;;;;20.07;98.27;99182.56;5156026;27;20053;-80
2022/08/02 05:59:58;;;;;;;7.20;2.30;;;;;;;19.87;98.57;99174.72;5153232;27;20043;-79
2022/08/02 06:02:30;;;;;;;8.50;1.92;;;;;;;20.34;95.96;99204.88;5153395;27;20047;-80
2022/08/02 06:05:03;;;;;;;11.32;2.38;;;;;;;20.50;92.75;99176.47;5150381;27;20553;-80
2022/08/02 06:07:34;;;;;;;9.95;2.80;;;;;;;20.97;88.82;99178.06;5151703;27;20099;-80
2022/08/02 06:10:03;;;;;;;4.68;2.10;;;;;;;21.51;84.67;99198.75;5154127;27;20146;-80
2022/08/02 06:12:32;;;;;;;4.17;1.93;;;;;;;21.82;81.36;99185.31;5143236;27;20239;-79
2022/08/02 06:14:59;;;;;;;6.60;2.25;;;;;;;21.77;78.42;99169.50;5151469;27;20303;-80
2022/08/02 06:17:26;;;;;;;5.85;2.47;;;;;;;21.82;78.52;99190.84;5144683;27;20054;-81
2022/08/02 06:19:56;;;;;;;5.45;3.22;;;;;;;21.76;76.31;99192.72;5152994;27;20038;-81
2022/08/02 06:22:26;;;;;;;5.90;2.33;;;;;;;22.07;75.40;99195.81;5157008;27;20050;-81
2022/08/02 06:24:55;;;;;;;5.88;2.45;;;;;;;22.10;75.16;99167.66;5159662;27;20053;-80
2022/08/02 06:27:27;;;;;;;5.93;2.75;;;;;;;22.66;71.68;99185.91;5163796;27;20051;-81
2022/08/02 06:29:55;;;;;;;3.35;2.58;;;;;;;22.60;71.11;99165.66;5159583;27;20132;-81
2022/08/02 06:32:21;;;;;;;4.32;2.67;;;;;;;22.62;71.02;99200.28;5155604;27;20129;-81
2022/08/02 06:34:48;;;;;;;8.13;2.50;;;;;;;22.86;70.24;99193.56;5155639;27;20054;-82
2022/08/02 06:37:25;;;;;;;5.68;2.45;;;;;;;22.83;70.33;99194.94;5152553;27;20054;-81
2022/08/02 06:40:01;;;;;;;4.05;2.10;;;;;;;23.34;69.04;99183.38;5152459;27;20445;-80
2022/08/02 06:42:37;;;;;;;4.03;2.85;;;;;;;23.29;68.43;99178.66;5138221;27;20394;-80
2022/08/02 06:45:04;;;;;;;6.28;2.55;;;;;;;23.76;66.36;99193.59;5162731;27;20461;-82
2022/08/02 06:47:35;;;;;;;4.03;2.38;;;;;;;23.97;66.58;99199.25;5144505;27;20126;-81
2022/08/02 06:50:05;;;;;;;6.07;2.75;;;;;;;23.94;65.65;99192.28;5152330;27;20378;-81
2022/08/02 06:52:32;;;;;;;6.95;2.72;;;;;;;23.84;66.27;99201.38;5149797;27;20051;-81
2022/08/02 06:54:59;;;;;;;3.10;2.28;;;;;;;23.73;65.44;99180.25;5147253;27;20043;-81
2022/08/02 06:57:26;;;;;;;4.88;2.88;;;;;;;24.07;64.51;99204.00;5152928;27;20081;-81
2022/08/02 06:59:55;;;;;;;3.40;2.20;;;;;;;24.01;64.37;99192.03;5154136;27;20050;-81
2022/08/02 07:02:21;;;;;;;4.75;2.60;;;;;;;23.85;65.38;99191.97;5140781;27;20049;-81
2022/08/02 07:04:48;;;;;;;6.40;3.00;;;;;;;23.76;65.72;99173.34;5155659;27;20049;-81
2022/08/02 07:07:15;;;;;;;3.72;2.58;;;;;;;24.10;64.08;99162.59;5146565;27;20067;-81
2022/08/02 07:09:41;;;;;;;4.60;2.83;;;;;;;24.14;63.40;99158.19;5154846;27;20494;-81
2022/08/02 07:12:08;;;;;;;6.35;2.75;;;;;;;24.19;61.99;99174.88;5153225;27;20051;-81
2022/08/02 07:14:34;;;;;;;5.68;2.97;;;;;;;24.28;61.86;99177.09;5151942;27;20042;-81
2022/08/02 07:17:03;;;;;;;6.05;2.88;;;;;;;24.44;61.67;99177.97;5152448;27;20404;-81
2022/08/02 07:19:29;;;;;;;8.32;2.70;;;;;;;25.28;59.16;99203.53;5153411;27;20069;-81
2022/08/02 07:22:09;;;;;;;8.48;2.65;;;;;;;25.48;57.80;99199.06;5150529;27;20047;-82
2022/08/02 07:24:35;;;;;;;7.68;3.05;;;;;;;25.35;57.57;99186.56;5153181;27;20130;-81
2022/08/02 07:27:03;;;;;;;6.65;2.92;;;;;;;25.63;57.09;99199.00;5153736;27;20065;-80
2022/08/02 07:29:31;;;;;;;6.65;2.70;;;;;;;25.37;57.20;99170.44;5145226;27;20138;-81
2022/08/02 07:31:58;;;;;;;5.93;2.83;;;;;;;25.30;57.25;99198.53;5151511;27;20508;-81
2022/08/02 07:34:26;;;;;;;6.30;3.10;;;;;;;25.28;56.76;99170.16;5150547;27;20043;-81
2022/08/02 07:36:54;;;;;;;5.05;3.00;;;;;;;25.32;56.84;99182.38;5153196;27;20034;-81
2022/08/02 07:39:20;;;;;;;7.97;3.17;;;;;;;25.48;57.03;99210.19;5150630;27;20070;-82
2022/08/02 07:41:50;;;;;;;5.32;2.80;;;;;;;25.39;56.34;99209.94;5151483;27;20043;-80
2022/08/02 07:44:17;;;;;;;3.47;2.33;;;;;;;25.26;57.88;99202.97;5149083;27;20074;-79
2022/08/02 07:46:43;;;;;;;3.22;2.92;;;;;;;25.68;55.79;99206.50;5150119;27;20423;-81
2022/08/02 07:49:10;;;;;;;4.40;2.78;;;;;;;25.71;56.44;99209.53;5151672;27;20048;-81
2022/08/02 07:51:38;;;;;;;3.55;2.42;;;;;;;25.09;57.09;99178.25;5140777;27;20185;-81
2022/08/02 07:54:05;;;;;;;4.15;2.92;;;;;;;24.95;57.89;99196.63;5148259;27;20054;-81
2022/08/02 07:56:32;;;;;;;5.82;2.80;;;;;;;24.65;59.26;99209.41;5148620;27;20053;-81
2022/08/02 07:58:58;;;;;;;8.40;2.88;;;;;;;24.89;58.92;99199.41;5152455;27;20050;-80
2022/08/02 08:01:25;;;;;;;9.00;3.60;;;;;;;24.91;58.48;99205.50;5147046;27;20051;-81
2022/08/02 08:03:51;;;;;;;4.82;2.72;;;;;;;25.00;57.34;99207.75;5140747;27;20053;-80
2022/08/02 08:06:18;;;;;;;8.52;2.90;;;;;;;25.11;57.21;99189.91;5142139;27;20050;-80
2022/08/02 08:08:46;;;;;;;8.50;2.80;;;;;;;25.58;56.15;99190.69;5143388;27;20049;-81
2022/08/02 08:11:22;;;;;;;5.40;2.78;;;;;;;25.83;56.10;99206.44;5151695;27;20053;-80
2022/08/02 08:13:48;;;;;;;8.85;4.13;;;;;;;25.85;55.06;99179.16;5140376;27;20050;-81
2022/08/02 08:16:15;;;;;;;9.05;2.83;;;;;;;25.75;55.60;99185.59;5149287;27;20405;-79
2022/08/02 08:18:42;;;;;;;6.93;2.63;;;;;;;25.76;54.96;99178.91;5141708;27;20508;-80
2022/08/02 08:21:08;;;;;;;7.95;2.60;;;;;;;25.34;56.76;99191.31;5146990;27;20050;-82
2022/08/02 08:23:35;;;;;;;4.38;2.40;;;;;;;25.51;56.42;99193.75;5144471;27;20489;-80
2022/08/02 08:26:03;;;;;;;6.35;2.80;;;;;;;25.33;56.22;99189.63;5148218;27;20053;-81
2022/08/02 08:28:30;;;;;;;8.80;2.70;;;;;;;25.42;56.57;99187.94;5138686;27;20050;-81
2022/08/02 08:31:24;;;;;;;6.15;2.85;;;;;;;25.49;55.63;99198.78;5139913;27;20400;-81
2022/08/02 08:33:51;;;;;;;2.97;2.13;;;;;;;25.61;55.56;99196.50;5125807;27;20046;-80
2022/08/02 08:36:17;;;;;;;3.40;2.10;;;;;;;25.75;52.90;99205.09;5141812;27;20043;-81
2022/08/02 08:38:44;;;;;;;5.75;2.20;;;;;;;25.56;53.71;99190.13;5137831;27;20077;-81
2022/08/02 08:41:12;;;;;;;3.80;2.20;;;;;;;25.71;53.34;99206.75;5139097;27;20050;-82
2022/08/02 08:43:39;;;;;;;3.42;2.00;;;;;;;25.89;52.38;99193.34;5136182;27;20397;-81
2022/08/02 08:46:08;;;;;;;5.13;2.40;;;;;;;25.83;52.31;99195.31;5139246;27;20048;-82
2022/08/02 08:48:38;;;;;;;4.13;2.30;;;;;;;25.83;52.28;99194.47;5149835;27;20039;-81
2022/08/02 08:51:10;;;;;;;2.60;2.10;;;;;;;25.87;52.53;99182.47;5147769;27;20059;-81
2022/08/02 08:53:40;;;;;;;3.28;2.45;;;;;;;25.96;51.89;99189.13;5139618;27;20134;-81
2022/08/02 08:56:07;;;;;;;;;;;;;;;25.75;52.31;99199.50;5146403;27;20071;-82
2022/08/02 08:58:35;;;;;;;3.70;2.40;;;;;;;25.80;53.28;99195.88;5146628;27;19919;-81
2022/08/02 09:01:02;;;;;;;3.72;2.60;;;;;;;26.13;52.14;99182.38;5144965;27;20121;-80
2022/08/02 09:03:29;;;;;;;2.25;2.05;;;;;;;26.21;51.67;99180.94;5144184;27;20499;-81
2022/08/02 09:05:58;;;;;;;3.70;2.20;;;;;;;25.94;52.30;99180.22;5143860;27;20045;-82
2022/08/02 09:08:24;;;;;;;3.03;2.60;;;;;;;26.07;51.51;99173.22;5146048;27;20099;-81
2022/08/02 09:10:51;;;;;;;3.42;2.17;;;;;;;26.05;51.91;99194.13;5149490;27;20314;-82
2022/08/02 09:13:19;;;;;;;3.08;2.47;;;;;;;25.95;51.43;99165.19;5139997;27;20217;-81
2022/08/02 09:15:55;;;;;;;4.50;3.03;;;;;;;26.29;51.16;99186.72;5148843;27;20050;-80
2022/08/02 09:18:21;;;;;;;6.40;2.20;;;;;;;26.25;51.20;99182.84;5144546;27;20066;-81
2022/08/02 09:20:53;;;;;;;6.60;2.35;;;;;;;26.40;50.48;99176.34;5148832;27;20050;-82
2022/08/02 09:23:21;;;;;;;5.75;2.05;;;;;;;26.28;51.05;99185.06;5144831;27;20053;-81
2022/08/02 09:25:56;;;;;;;3.17;2.88;;;;;;;26.63;50.29;99173.94;5152429;27;20050;-80
2022/08/02 09:28:27;;;;;;;4.00;2.15;;;;;;;26.68;49.35;99171.16;5147182;27;20043;-80
2022/08/02 09:31:02;;;;;;;2.72;2.20;;;;;;;26.56;49.48;99173.47;5146651;27;20110;-81
2022/08/02 09:33:29;;;;;;;3.58;2.20;;;;;;;26.51;50.15;99157.59;5152214;27;20055;-81
2022/08/02 09:36:00;;;;;;;5.93;2.58;;;;;;;26.65;49.14;99163.34;5151848;27;20047;-80
2022/08/02 09:38:28;;;;;;;3.45;2.30;;;;;;;26.57;48.80;99156.44;5151583;27;20043;-80
2022/08/02 09:40:55;;;;;;;2.40;2.10;;;;;;;26.56;49.38;99167.91;5137406;27;20410;-81
2022/08/02 09:43:34;;;;;;;3.15;2.45;;;;;;;26.66;49.34;99165.00;5138892;27;20046;-80
2022/08/02 09:46:09;;;;;;;3.55;2.38;;;;;;;26.88;48.85;99170.16;5135201;27;20065;-81
2022/08/02 09:48:46;;;;;;;3.92;2.20;;;;;;;27.19;47.87;99162.31;5141511;27;20054;-81
2022/08/02 09:51:13;;;;;;;3.97;2.28;;;;;;;27.20;47.64;99160.34;5136777;27;20035;-81
2022/08/02 09:53:39;;;;;;;10.77;2.40;;;;;;;27.23;47.35;99162.53;5145419;27;20047;-82
2022/08/02 09:56:06;;;;;;;2.33;2.13;;;;;;;27.43;46.82;99166.25;5143567;27;20071;-82
2022/08/02 09:58:38;;;;;;;3.53;2.40;;;;;;;27.17;46.51;99156.22;5137731;27;20055;-81
2022/08/02 10:01:06;;;;;;;4.10;2.47;;;;;;;27.37;46.68;99152.38;5142303;27;20435;-82
2022/08/02 10:03:34;;;;;;;2.90;2.45;;;;;;;27.19;47.95;99153.13;5150051;27;20045;-81
2022/08/02 10:06:01;;;;;;;3.10;2.40;;;;;;;27.18;47.03;99157.84;5137717;27;20047;-81
2022/08/02 10:08:28;;;;;;;4.63;2.72;;;;;;;27.26;46.81;99159.16;5132918;27;20359;-81
2022/08/02 10:11:00;;;;;;;4.43;2.25;;;;;;;27.76;46.27;99158.88;5130123;27;20501;-82
2022/08/02 10:13:28;;;;;;;5.35;2.72;;;;;;;27.81;45.36;99153.25;5151573;27;20107;-81
2022/08/02 10:15:56;;;;;;;5.18;2.47;;;;;;;28.00;43.93;99152.44;5155299;27;20386;-80
2022/08/02 10:18:24;;;;;;;6.18;2.60;;;;;;;27.50;44.98;99136.84;5143301;27;20541;-81
2022/08/02 10:20:54;;;;;;;3.70;2.20;;;;;;;27.71;45.17;99133.81;5140764;27;20051;-81
2022/08/02 10:23:22;;;;;;;3.17;2.50;;;;;;;28.25;44.23;99134.50;5135001;27;20404;-81
2022/08/02 10:25:53;;;;;;;2.97;2.30;;;;;;;28.23;43.21;99131.19;5140432;27;20058;-80
2022/08/02 10:28:25;;;;;;;3.67;2.35;;;;;;;28.41;43.68;99126.69;5129264;27;20047;-81
2022/08/02 10:30:55;;;;;;;3.67;2.10;;;;;;;28.63;42.85;99126.06;5143728;27;20398;-81
2022/08/02 10:33:25;;;;;;;20.73;5.13;;;;;;;28.39;43.48;99117.78;5141066;27;20047;-81
2022/08/02 10:35:56;;;;;;;5.53;2.47;;;;;;;28.59;42.04;99122.22;5142765;27;20046;-80
2022/08/02 10:38:24;;;;;;;6.00;2.20;;;;;;;28.67;42.65;99106.72;5135971;27;20073;-81
2022/08/02 10:40:52;;;;;;;2.97;2.15;;;;;;;28.71;42.41;99136.56;5134134;27;20047;-81
2022/08/02 10:43:40;;;;;;;2.10;1.90;;;;;;;28.52;42.36;99119.78;5132716;27;20057;-81
2022/08/02 10:46:24;;;;;;;2.03;1.92;;;;;;;28.35;43.16;99120.34;5151872;27;20049;-81
2022/08/02 10:49:02;;;;;;;2.15;1.70;;;;;;;28.57;42.71;99088.94;5146084;27;20125;-83
2022/08/02 10:52:13;;;;;;;4.47;1.80;;;;;;;28.71;42.60;99091.81;5144665;27;20062;-82
2022/08/02 10:54:44;;;;;;;2.55;2.20;;;;;;;28.86;41.15;99101.06;5048655;28;20049;-82
2022/08/02 10:57:22;;;;;;;3.70;1.90;;;;;;;29.12;41.20;99091.03;5131092;27;20078;-82
2022/08/02 10:59:50;;;;;;;2.10;1.85;;;;;;;29.14;41.03;99104.72;5142149;27;20038;-82
2022/08/02 11:02:39;;;;;;;5.93;1.98;;;;;;;29.58;39.99;99094.06;5156731;27;20058;-82
2022/08/02 11:05:09;;;;;;;2.22;2.03;;;;;;;29.60;39.99;99108.59;5160513;27;20069;-82
2022/08/02 11:07:37;;;;;;;1.80;1.70;;;;;;;28.90;41.00;99077.75;5151577;27;20493;-83
2022/08/02 11:10:33;;;;;;;2.38;1.90;;;;;;;28.59;43.09;99103.50;5154315;27;20042;-80
2022/08/02 11:13:04;;;;;;;2.95;1.88;;;;;;;29.34;42.14;99097.09;5152605;27;20053;-83
2022/08/02 11:15:46;;;;;;;3.88;1.90;;;;;;;29.75;40.32;99096.19;5152161;27;20069;-83
2022/08/02 11:18:13;;;;;;;5.07;1.77;;;;;;;29.81;39.92;99095.81;5154831;27;20043;-83
2022/08/02 11:20:40;;;;;;;4.50;2.08;;;;;;;30.59;38.84;99094.81;5150698;27;20050;-85
2022/08/02 11:23:35;;;;;;;2.38;1.63;;;;;;;30.54;38.71;99092.97;5161780;27;20051;-83
2022/08/02 11:26:42;;;;;;;2.30;1.85;;;;;;;30.14;38.47;99095.63;5154550;27;20043;-80
2022/08/02 11:29:09;;;;;;;2.67;1.65;;;;;;;30.03;38.72;99093.38;5149471;27;20117;-81
2022/08/02 11:31:41;;;;;;;4.93;2.08;;;;;;;29.48;38.95;99065.13;5149454;27;20053;-80
2022/08/02 11:34:08;;;;;;;4.20;1.73;;;;;;;29.46;39.53;99098.22;5150845;27;20137;-79
2022/08/02 11:36:46;;;;;;;2.13;1.80;;;;;;;28.96;39.46;99090.50;5161994;27;20042;-79
2022/08/02 11:39:14;;;;;;;4.75;1.70;;;;;;;28.68;40.37;99072.84;5149339;27;20469;-79
2022/08/02 11:41:48;;;;;;;6.45;1.75;;;;;;;28.34;40.50;99078.72;5150557;27;20144;-81
2022/08/02 11:44:15;;;;;;;5.65;2.10;;;;;;;28.04;41.09;99076.09;5142655;27;20046;-80
2022/08/02 11:46:42;;;;;;;2.83;1.95;;;;;;;28.19;41.38;99058.28;5152815;27;20070;-80